createdAt,value
2022-12-11T00:07:27.285Z,-0.9
2022-12-11T00:27:31.630Z,-0.9
2022-12-11T00:47:36.496Z,-1
2022-12-11T00:57:38.654Z,-1
2022-12-11T01:07:41.025Z,-1.1
2022-12-11T01:17:43.021Z,-1.2
2022-12-11T01:27:45.388Z,-1.2
2022-12-11T01:37:47.930Z,-1.1
2022-12-11T01:47:50.332Z,-1.1
2022-12-11T01:57:52.664Z,-1
2022-12-11T02:07:55.263Z,-1
2022-12-11T02:17:57.743Z,-1
2022-12-11T02:28:00.426Z,-0.9
2022-12-11T02:38:02.671Z,-1
2022-12-11T02:48:04.963Z,-0.9
2022-12-11T03:08:08.723Z,-0.9
2022-12-11T03:18:10.822Z,-0.8
2022-12-11T03:28:12.784Z,-0.9
2022-12-11T03:38:14.689Z,-0.8
2022-12-11T03:48:16.627Z,-0.8
2022-12-11T03:58:18.958Z,-0.8
2022-12-11T04:08:21.262Z,-0.8
2022-12-11T04:18:23.612Z,-0.8
2022-12-11T04:28:25.897Z,-0.8
2022-12-11T04:38:28.178Z,-0.8
2022-12-11T04:48:30.773Z,-0.7
2022-12-11T04:58:32.693Z,-0.7
2022-12-11T05:08:34.514Z,-0.8
2022-12-11T05:18:36.725Z,-0.8
2022-12-11T05:28:38.613Z,-0.8
2022-12-11T05:38:40.339Z,-0.8
2022-12-11T05:48:42.524Z,-0.7
2022-12-11T05:58:45.040Z,-0.8
2022-12-11T06:08:46.818Z,-0.7
2022-12-11T06:18:48.828Z,-0.7
2022-12-11T06:28:51.295Z,-0.7
2022-12-11T06:38:53.851Z,-0.6
2022-12-11T07:09:00.878Z,-0.6
2022-12-11T07:19:03.304Z,-0.6
2022-12-11T07:29:05.323Z,-0.6
2022-12-11T07:30:32.722Z,-0.6
2022-12-11T07:39:15.763Z,-0.6
2022-12-11T07:49:18.231Z,-0.5
2022-12-11T07:59:19.933Z,-0.5
2022-12-11T08:09:21.962Z,-0.5
2022-12-11T08:19:23.696Z,-0.5
2022-12-11T08:29:26.305Z,-0.5
2022-12-11T08:39:28.920Z,-0.5
2022-12-11T08:49:34.526Z,-0.4
2022-12-11T08:59:33.813Z,-0.4
2022-12-11T09:09:35.643Z,-0.3
2022-12-11T09:19:37.852Z,-0.3
2022-12-11T09:29:39.937Z,-0.3
2022-12-11T09:39:42.611Z,-0.2
2022-12-11T09:49:44.899Z,-0.2
2022-12-11T09:59:46.809Z,-0.2
2022-12-11T10:09:49.099Z,-0.2
2022-12-11T10:29:52.880Z,-0.2
2022-12-11T10:39:54.689Z,-0.2
2022-12-11T10:49:56.462Z,-0.1
2022-12-11T10:59:58.668Z,0
2022-12-11T11:10:01.271Z,0
2022-12-11T11:20:03.321Z,0
2022-12-11T11:30:05.908Z,0
2022-12-11T11:40:07.734Z,0
2022-12-11T11:50:09.647Z,-0.1
2022-12-11T12:00:11.879Z,0
2022-12-11T12:10:13.717Z,0
2022-12-11T12:20:16.264Z,0
2022-12-11T12:30:22.312Z,0
2022-12-11T12:40:20.582Z,0
2022-12-11T12:50:23.078Z,0.1
2022-12-11T13:00:25.519Z,0.1
2022-12-11T13:10:27.631Z,0
2022-12-11T13:20:29.798Z,0
2022-12-11T13:30:31.818Z,0
2022-12-11T13:40:33.727Z,0
2022-12-11T13:50:35.455Z,0
2022-12-11T14:00:37.487Z,0
2022-12-11T14:10:39.777Z,0
2022-12-11T14:20:41.864Z,0
2022-12-11T14:30:43.989Z,0
2022-12-11T14:40:46.083Z,0
2022-12-11T14:50:47.964Z,0
2022-12-11T15:00:49.708Z,0
2022-12-11T15:10:54.292Z,0
2022-12-11T15:20:54.109Z,0
2022-12-11T15:30:56.119Z,0
2022-12-11T15:40:57.853Z,0
2022-12-11T15:51:00.053Z,0
2022-12-11T16:01:02.058Z,0
2022-12-11T16:11:04.054Z,-0.1
2022-12-11T16:21:06.397Z,-0.2
2022-12-11T16:31:09.108Z,-0.3
2022-12-11T16:51:13.721Z,-0.4
2022-12-11T17:01:15.667Z,-0.5
2022-12-11T17:11:17.777Z,-0.5
2022-12-11T17:21:20.258Z,-0.4
2022-12-11T17:31:22.438Z,-0.5
2022-12-11T17:41:24.463Z,-0.5
2022-12-11T17:51:26.796Z,-0.5
2022-12-11T18:01:29.305Z,-0.5
2022-12-11T18:11:31.829Z,-0.5
2022-12-11T18:21:34.159Z,-0.4
2022-12-11T18:31:40.613Z,-0.5
2022-12-11T18:51:40.650Z,-0.5
2022-12-11T19:01:42.742Z,-0.5
2022-12-11T19:11:45.024Z,-0.5
2022-12-11T19:21:46.996Z,-0.5
2022-12-11T19:31:49.703Z,-0.6
2022-12-11T19:41:51.344Z,-0.5
2022-12-11T19:51:53.344Z,-0.5
2022-12-11T20:01:55.934Z,-0.5
2022-12-11T20:11:57.566Z,-0.6
2022-12-11T20:21:59.961Z,-0.6
2022-12-11T20:32:01.908Z,-0.6
2022-12-11T20:42:04.040Z,-0.6
2022-12-11T20:52:05.972Z,-0.5
2022-12-11T21:02:08.044Z,-0.6
2022-12-11T21:12:10.148Z,-0.7
2022-12-11T21:22:11.956Z,-0.7
2022-12-11T21:32:14.112Z,-0.7
2022-12-11T21:42:16.708Z,-0.7
2022-12-11T21:52:18.522Z,-0.6
2022-12-11T22:02:20.851Z,-0.7
2022-12-11T22:12:23.258Z,-0.7
2022-12-11T22:22:24.953Z,-0.7
2022-12-11T22:32:27.591Z,-0.7
2022-12-11T22:42:30.036Z,-0.7
2022-12-11T22:52:32.251Z,-0.7
2022-12-11T23:02:34.199Z,-0.7
2022-12-11T23:12:36.810Z,-0.7
2022-12-11T23:22:39.041Z,-0.7
2022-12-11T23:32:41.531Z,-0.8
2022-12-11T23:42:43.747Z,-0.8
2022-12-11T23:52:46.049Z,-0.8
